Startpagina
METAR-TAF:

METAR-TAF

Vliegvelden :

Rabat, Marokko

Luchthaven Rabat-Sale

breedte: 34-03N, lengte: 006-46W, hoogte: 84 m

Actueel weer

Dit bericht is 29 minuten geleden gemaakt, om 08:00 UTC
Wind 2 kt uit het zuiden
Temperatuur 16°C
Vochtigheid 82%
Druk 1012 hPa
Zicht 10 km of meer
geen wolken onder 1500 m en geen cumulonimbus

METAR: GMME 220800Z 17002KT CAVOK 16/13 Q1012 NOSIG

Tijdstip: 09:29 (08:29 UTC)

Verwachting

Dit bericht is 3 uur en het 29 minuten geleden gemaakt, om 05:00 UTC
Verwachting geldig van 22 om 06 UTC tot 23 om 12 UTC
Wind 2 kt uit variabele richting
Zicht 10 km of meer
Verspreide wolken op 1500 ft
Wijzigt naar
van 22 om 08 UTC tot 22 om 12 UTC
Wind 10 kt uit het oostnoordoosten
Zicht: 5000 m
Verspreide wolken op 1000 ft

TAF: GMME 220500Z 2206/2312 VRB02KT 9999 SCT015 BECMG 2208/2212 06010KT 5000 SCT010

Waarnemingen en weersverwachtingen van meer dan 4000 vliegvelden (METAR en TAF).

De beschikbare stations zijn de gele en rode punten op de kaart.

Ga met uw muis naar het station om de naam te zien.

Klik dan om waarnemingen en weersverwachtingen te zien.

kaart wijzigen: klik op de groene knoppen met een zwart kruis om in te zoomen, op de groene knop met een streepje om uit te zoomen of op de groene pijlen voor aangrenzende kaarten.


METAR-TAF: